createdAt,value
2022-12-31T00:01:37.113Z,94942.84
2022-12-31T00:04:04.848Z,94956.41
2022-12-31T00:06:34.692Z,94965.63
2022-12-31T00:09:05.882Z,94952.75
2022-12-31T00:11:35.781Z,94968.34
2022-12-31T00:14:03.623Z,94961.56
2022-12-31T00:16:33.172Z,94973.59
2022-12-31T00:19:01.580Z,94965.75
2022-12-31T00:21:30.656Z,94946.03
2022-12-31T00:23:58.859Z,94963.13
2022-12-31T00:26:29.823Z,94952.81
2022-12-31T00:28:58.720Z,94972.16
2022-12-31T00:31:28.370Z,94965.88
2022-12-31T00:33:56.574Z,94978.47
2022-12-31T00:36:25.680Z,94974.59
2022-12-31T00:38:54.745Z,94950.91
2022-12-31T00:41:23.369Z,94971.97
2022-12-31T00:43:52.176Z,94960.94
2022-12-31T00:46:20.328Z,94953.69
2022-12-31T00:48:47.994Z,94932.03
2022-12-31T00:51:17.222Z,94967.75
2022-12-31T00:53:45.119Z,94964.34
2022-12-31T00:56:14.860Z,94972.41
2022-12-31T00:58:42.724Z,94977.84
2022-12-31T01:01:13.275Z,94983.63
2022-12-31T01:03:41.025Z,94983.28
2022-12-31T01:06:08.873Z,94964.00
2022-12-31T01:08:36.399Z,94975.94
2022-12-31T01:11:22.116Z,94979.03
2022-12-31T01:13:52.152Z,94975.63
2022-12-31T01:16:23.217Z,94970.72
2022-12-31T01:18:51.449Z,94956.41
2022-12-31T01:21:19.858Z,94945.81
2022-12-31T01:23:47.372Z,94979.31
2022-12-31T01:26:15.969Z,94975.63
2022-12-31T01:28:43.712Z,94966.25
2022-12-31T01:31:13.390Z,94958.63
2022-12-31T01:33:42.797Z,94962.97
2022-12-31T01:36:12.615Z,94964.41
2022-12-31T01:38:40.617Z,94972.47
2022-12-31T01:41:08.610Z,94990.06
2022-12-31T01:43:46.308Z,94977.84
2022-12-31T01:46:26.323Z,94984.69
2022-12-31T01:48:58.769Z,94973.88
2022-12-31T01:51:28.269Z,94982.00
2022-12-31T01:53:56.709Z,94980.22
2022-12-31T01:56:25.283Z,94995.22
2022-12-31T01:58:56.792Z,94997.91
2022-12-31T02:01:29.078Z,95007.03
2022-12-31T02:03:59.517Z,94996.06
2022-12-31T02:06:31.995Z,95016.84
2022-12-31T02:08:59.639Z,95012.75
2022-12-31T02:11:29.934Z,95004.63
2022-12-31T02:14:06.934Z,94994.38
2022-12-31T02:16:46.291Z,94997.78
2022-12-31T02:19:42.927Z,94988.88
2022-12-31T02:22:19.305Z,95011.06
2022-12-31T02:25:03.353Z,94962.78
2022-12-31T02:27:52.434Z,94996.00
2022-12-31T02:30:22.860Z,94961.94
2022-12-31T02:33:08.996Z,95004.06
2022-12-31T02:35:47.480Z,95009.00
2022-12-31T02:38:18.874Z,95017.72
2022-12-31T02:40:47.068Z,94999.59
2022-12-31T02:43:14.708Z,95006.94
2022-12-31T02:45:48.402Z,94997.63
2022-12-31T02:48:27.875Z,95000.88
2022-12-31T02:51:04.646Z,95023.28
2022-12-31T02:53:48.509Z,95023.50
2022-12-31T02:56:22.462Z,95027.25
2022-12-31T02:59:15.562Z,95022.44
2022-12-31T03:02:06.938Z,95032.19
2022-12-31T03:04:36.082Z,95024.69
2022-12-31T03:07:05.906Z,95030.41
2022-12-31T03:09:33.895Z,95017.22
2022-12-31T03:12:31.353Z,95039.63
2022-12-31T03:14:59.361Z,95041.75
2022-12-31T03:17:28.436Z,95038.13
2022-12-31T03:20:13.641Z,95039.06
2022-12-31T03:22:43.400Z,95050.09
2022-12-31T03:25:32.148Z,95040.75
2022-12-31T03:28:00.387Z,95022.44
2022-12-31T03:30:28.704Z,95044.84
2022-12-31T03:32:57.640Z,95023.28
2022-12-31T03:35:27.564Z,95029.66
2022-12-31T03:37:55.291Z,95024.84
2022-12-31T03:40:25.494Z,95024.25
2022-12-31T03:42:53.012Z,95054.00
2022-12-31T03:45:21.071Z,95064.59
2022-12-31T03:47:48.934Z,95048.91
2022-12-31T03:50:19.744Z,95071.81
2022-12-31T03:52:47.467Z,95071.63
2022-12-31T03:55:15.399Z,95062.78
2022-12-31T03:57:43.119Z,95045.06
2022-12-31T04:00:15.626Z,95040.19
2022-12-31T04:02:43.124Z,95034.22
2022-12-31T04:05:10.944Z,94997.56
2022-12-31T04:07:40.318Z,95048.22
2022-12-31T04:10:10.359Z,95042.16
2022-12-31T04:12:37.968Z,95005.53
2022-12-31T04:15:06.816Z,95034.38
2022-12-31T04:17:34.299Z,95025.63
2022-12-31T04:20:01.859Z,95056.16
2022-12-31T04:22:29.291Z,95035.97
2022-12-31T04:24:58.085Z,95050.34
2022-12-31T04:27:25.581Z,95011.09
2022-12-31T04:29:53.153Z,95047.84
2022-12-31T04:32:20.633Z,95033.44
2022-12-31T04:34:48.093Z,95039.78
2022-12-31T04:37:15.518Z,95023.50
2022-12-31T04:39:42.970Z,95052.97
2022-12-31T04:42:11.747Z,95059.19
2022-12-31T04:44:39.193Z,95069.28
2022-12-31T04:47:06.648Z,95026.13
2022-12-31T04:49:34.099Z,95058.81
2022-12-31T04:52:01.565Z,95019.78
2022-12-31T04:54:29.022Z,95024.44
2022-12-31T04:56:56.475Z,95037.25
2022-12-31T04:59:25.390Z,95055.88
2022-12-31T05:01:52.960Z,95057.38
2022-12-31T05:04:20.564Z,95084.22
2022-12-31T05:06:48.226Z,95074.06
2022-12-31T05:09:15.712Z,95081.69
2022-12-31T05:11:43.262Z,95056.38
2022-12-31T05:14:10.731Z,95078.50
2022-12-31T05:16:39.798Z,95077.59
2022-12-31T05:19:09.458Z,95090.75
2022-12-31T05:21:37.202Z,95100.44
2022-12-31T05:24:05.170Z,95084.81
2022-12-31T05:26:32.605Z,95071.72
2022-12-31T05:29:00.503Z,95094.22
2022-12-31T05:31:27.990Z,95085.38
2022-12-31T05:33:57.049Z,95071.22
2022-12-31T05:36:24.495Z,95115.03
2022-12-31T05:38:51.958Z,95081.50
2022-12-31T05:41:19.393Z,95096.50
2022-12-31T05:43:46.865Z,95089.44
2022-12-31T05:46:17.607Z,95042.75
2022-12-31T05:48:45.064Z,95082.13
2022-12-31T05:51:13.819Z,95111.56
2022-12-31T05:53:41.300Z,95066.06
2022-12-31T05:56:08.764Z,95094.50
2022-12-31T05:58:36.261Z,95106.63
2022-12-31T06:01:03.732Z,95097.97
2022-12-31T06:03:31.439Z,95119.69
2022-12-31T06:05:58.890Z,95104.50
2022-12-31T06:08:27.702Z,95104.69
2022-12-31T06:10:55.168Z,95069.81
2022-12-31T06:13:22.612Z,95105.97
2022-12-31T06:15:50.118Z,95125.69
2022-12-31T06:18:17.589Z,95122.03
2022-12-31T06:20:45.074Z,95120.47
2022-12-31T06:23:12.580Z,95076.28
2022-12-31T06:25:41.982Z,95127.13
2022-12-31T06:28:16.074Z,95118.84
2022-12-31T06:30:47.222Z,95134.47
2022-12-31T06:33:14.974Z,95136.31
2022-12-31T06:35:42.424Z,95121.03
2022-12-31T06:38:09.857Z,95163.06
2022-12-31T06:40:38.133Z,95145.50
2022-12-31T06:43:06.964Z,95125.56
2022-12-31T06:45:34.433Z,95135.34
2022-12-31T06:48:01.881Z,95110.25
2022-12-31T06:50:29.334Z,95151.53
2022-12-31T06:52:56.767Z,95137.66
2022-12-31T06:55:24.963Z,95144.09
2022-12-31T06:57:52.979Z,95150.75
2022-12-31T07:00:22.809Z,95148.94
2022-12-31T07:03:14.233Z,95137.97
2022-12-31T07:05:49.461Z,95150.25
2022-12-31T07:08:32.216Z,95141.91
2022-12-31T07:11:06.063Z,95141.13
2022-12-31T07:13:51.423Z,95160.03
2022-12-31T07:16:36.270Z,95163.22
2022-12-31T07:19:16.179Z,95146.38
2022-12-31T07:21:44.786Z,95140.00
2022-12-31T07:24:13.629Z,95145.19
2022-12-31T07:26:57.040Z,95153.88
2022-12-31T07:29:38.856Z,95148.94
2022-12-31T07:32:20.110Z,95146.56
2022-12-31T07:34:59.461Z,95149.91
2022-12-31T07:37:37.282Z,95171.06
2022-12-31T07:40:13.415Z,95148.44
2022-12-31T07:42:54.508Z,95186.28
2022-12-31T07:45:27.947Z,95164.06
2022-12-31T07:48:02.225Z,95185.56
2022-12-31T07:50:31.100Z,95163.19
2022-12-31T07:52:59.133Z,95195.34
2022-12-31T07:55:26.607Z,95169.50
2022-12-31T07:58:02.030Z,95198.53
2022-12-31T08:00:31.917Z,95190.13
2022-12-31T08:03:15.547Z,95198.66
2022-12-31T08:05:51.994Z,95205.19
2022-12-31T08:08:30.447Z,95204.47
2022-12-31T08:11:07.814Z,95215.72
2022-12-31T08:13:35.489Z,95230.22
2022-12-31T08:16:03.787Z,95201.16
2022-12-31T08:18:33.164Z,95211.06
2022-12-31T08:21:07.297Z,95212.63
2022-12-31T08:23:41.365Z,95242.00
2022-12-31T08:26:19.612Z,95243.19
2022-12-31T08:29:08.064Z,95221.81
2022-12-31T08:31:41.753Z,95251.59
2022-12-31T08:34:21.303Z,95242.97
2022-12-31T08:36:56.169Z,95252.66
2022-12-31T08:39:36.486Z,95265.50
2022-12-31T08:42:09.351Z,95267.31
2022-12-31T08:44:45.908Z,95265.50
2022-12-31T08:47:23.603Z,95262.88
2022-12-31T08:49:52.947Z,95275.16
2022-12-31T08:52:24.222Z,95288.44
2022-12-31T08:54:52.353Z,95276.09
2022-12-31T08:57:27.664Z,95288.81
2022-12-31T09:00:04.565Z,95289.06
2022-12-31T09:02:52.733Z,95294.03
2022-12-31T09:05:25.790Z,95304.03
2022-12-31T09:08:05.323Z,95293.13
2022-12-31T09:10:41.023Z,95306.22
2022-12-31T09:13:16.328Z,95302.75
2022-12-31T09:15:50.657Z,95326.53
2022-12-31T09:18:18.682Z,95315.50
2022-12-31T09:20:47.972Z,95304.59
2022-12-31T09:23:15.972Z,95323.34
2022-12-31T09:25:52.065Z,95322.03
2022-12-31T09:28:34.642Z,95315.72
2022-12-31T09:31:07.133Z,95308.06
2022-12-31T09:33:43.147Z,95339.94
2022-12-31T09:36:19.801Z,95343.56
2022-12-31T09:38:53.376Z,95322.78
2022-12-31T09:41:40.136Z,95322.94
2022-12-31T09:44:42.154Z,95356.72
2022-12-31T09:47:49.174Z,95377.97
2022-12-31T09:50:38.272Z,95366.59
2022-12-31T09:53:25.969Z,95346.19
2022-12-31T09:55:58.194Z,95354.63
2022-12-31T09:58:38.084Z,95388.06
2022-12-31T10:01:19.544Z,95397.00
2022-12-31T10:04:12.960Z,95392.63
2022-12-31T10:06:49.566Z,95354.41
2022-12-31T10:09:40.181Z,95387.50
2022-12-31T10:12:25.745Z,95388.50
2022-12-31T10:15:09.882Z,95395.59
2022-12-31T10:17:54.883Z,95380.38
2022-12-31T10:20:47.657Z,95395.31
2022-12-31T10:23:46.937Z,95391.44
2022-12-31T10:26:32.437Z,95375.03
2022-12-31T10:29:13.737Z,95411.13
2022-12-31T10:31:49.649Z,95400.34
2022-12-31T10:34:22.474Z,95405.38
2022-12-31T10:36:55.265Z,95406.66
2022-12-31T10:39:39.115Z,95402.19
2022-12-31T10:42:34.563Z,95418.22
2022-12-31T10:45:44.762Z,95421.34
2022-12-31T10:48:45.804Z,95424.53
2022-12-31T10:51:53.699Z,95429.03
2022-12-31T10:54:37.028Z,95425.34
2022-12-31T10:57:28.299Z,95445.28
2022-12-31T11:00:10.274Z,95427.41
2022-12-31T11:03:11.681Z,95428.97
2022-12-31T11:06:05.404Z,95426.91
2022-12-31T11:08:54.647Z,95430.91
2022-12-31T11:11:42.183Z,95418.28
2022-12-31T11:14:40.643Z,95434.78
2022-12-31T11:17:21.965Z,95431.31
2022-12-31T11:20:03.742Z,95443.88
2022-12-31T11:22:44.805Z,95430.19
2022-12-31T11:25:29.903Z,95439.19
2022-12-31T11:28:11.787Z,95438.41
2022-12-31T11:30:52.922Z,95440.53
2022-12-31T11:33:34.008Z,95452.06
2022-12-31T11:36:15.357Z,95442.94
2022-12-31T11:38:51.406Z,95442.19
2022-12-31T11:41:27.252Z,95429.91
2022-12-31T11:44:03.788Z,95435.94
2022-12-31T11:46:48.894Z,95418.09
2022-12-31T11:49:31.066Z,95411.84
2022-12-31T11:52:21.228Z,95428.88
2022-12-31T11:55:28.077Z,95433.06
2022-12-31T11:57:59.287Z,95437.69
2022-12-31T12:00:28.370Z,95434.03
2022-12-31T12:03:00.327Z,95410.41
2022-12-31T12:05:28.962Z,95413.97
2022-12-31T12:07:56.744Z,95401.41
2022-12-31T12:10:33.560Z,95408.34
2022-12-31T12:13:13.042Z,95398.66
2022-12-31T12:15:43.665Z,95396.53
2022-12-31T12:18:27.799Z,95378.66
2022-12-31T12:21:03.387Z,95399.84
2022-12-31T12:23:32.708Z,95390.91
2022-12-31T12:26:00.161Z,95376.72
2022-12-31T12:28:29.785Z,95388.44
2022-12-31T12:31:00.673Z,95386.22
2022-12-31T12:33:30.905Z,95388.63
2022-12-31T12:36:09.578Z,95391.06
2022-12-31T12:38:37.958Z,95414.88
2022-12-31T12:41:08.299Z,95416.72
2022-12-31T12:43:37.517Z,95417.50
2022-12-31T12:46:07.411Z,95414.94
2022-12-31T12:48:40.906Z,95420.75
2022-12-31T12:51:18.741Z,95434.94
2022-12-31T12:53:56.478Z,95406.88
2022-12-31T12:56:38.047Z,95426.31
2022-12-31T12:59:25.159Z,95406.88
2022-12-31T13:02:01.642Z,95399.91
2022-12-31T13:04:50.885Z,95420.81
2022-12-31T13:07:28.885Z,95405.66
2022-12-31T13:10:10.474Z,95404.41
2022-12-31T13:13:22.840Z,95404.72
2022-12-31T13:15:42.198Z,95410.72
2022-12-31T13:18:27.418Z,95435.00
2022-12-31T13:21:02.332Z,95441.31
2022-12-31T13:23:39.943Z,95437.13
2022-12-31T13:26:15.535Z,95409.28
2022-12-31T13:28:46.798Z,95418.72
2022-12-31T13:31:19.008Z,95410.63
2022-12-31T13:33:49.991Z,95415.38
2022-12-31T13:36:22.337Z,95401.16
2022-12-31T13:38:52.414Z,95398.13
2022-12-31T13:41:25.144Z,95401.28
2022-12-31T13:43:58.740Z,95402.56
2022-12-31T13:46:41.630Z,95391.56
2022-12-31T13:49:17.840Z,95408.84
2022-12-31T13:51:50.124Z,95427.97
2022-12-31T13:54:28.136Z,95402.56
2022-12-31T13:56:58.300Z,95402.63
2022-12-31T13:59:31.264Z,95388.19
2022-12-31T14:02:06.975Z,95382.19
2022-12-31T14:04:40.250Z,95399.81
2022-12-31T14:07:15.578Z,95400.88
2022-12-31T14:09:43.253Z,95406.75
2022-12-31T14:12:24.643Z,95400.03
2022-12-31T14:15:03.850Z,95409.44
2022-12-31T14:17:39.956Z,95409.50
2022-12-31T14:20:18.492Z,95400.66
2022-12-31T14:22:52.886Z,95388.50
2022-12-31T14:25:27.549Z,95383.38
2022-12-31T14:27:57.417Z,95337.97
2022-12-31T14:30:30.649Z,95389.16
2022-12-31T14:33:18.975Z,95388.41
2022-12-31T14:35:55.834Z,95379.56
2022-12-31T14:38:38.456Z,95390.59
2022-12-31T14:41:19.916Z,95374.94
2022-12-31T14:43:57.994Z,95378.81
2022-12-31T14:46:31.247Z,95370.34
2022-12-31T14:49:16.434Z,95397.53
2022-12-31T14:51:43.911Z,95394.69
2022-12-31T14:54:29.104Z,95392.13
2022-12-31T14:56:56.780Z,95384.59
2022-12-31T14:59:27.764Z,95387.06
2022-12-31T15:01:56.721Z,95392.22
2022-12-31T15:04:33.625Z,95387.63
2022-12-31T15:07:11.877Z,95387.13
2022-12-31T15:09:57.416Z,95403.38
2022-12-31T15:12:42.916Z,95394.72
2022-12-31T15:15:45.092Z,95422.00
2022-12-31T15:18:30.869Z,95422.00
2022-12-31T15:21:26.304Z,95411.81
2022-12-31T15:23:53.920Z,95420.97
2022-12-31T15:26:25.405Z,95426.03
2022-12-31T15:29:02.003Z,95422.59
2022-12-31T15:31:30.071Z,95423.41
2022-12-31T15:34:00.552Z,95395.19
2022-12-31T15:36:29.815Z,95419.78
2022-12-31T15:39:25.414Z,95398.06
2022-12-31T15:44:49.415Z,95410.47
2022-12-31T15:47:29.753Z,95389.84
2022-12-31T15:50:00.880Z,95417.53
2022-12-31T15:52:37.322Z,95413.84
2022-12-31T15:55:07.294Z,95420.94
2022-12-31T15:57:40.062Z,95440.56
2022-12-31T16:00:16.608Z,95421.47
2022-12-31T16:02:44.730Z,95439.03
2022-12-31T16:05:20.580Z,95443.53
2022-12-31T16:07:48.488Z,95446.16
2022-12-31T16:10:21.337Z,95423.50
2022-12-31T16:12:50.660Z,95453.50
2022-12-31T16:15:24.835Z,95426.94
2022-12-31T16:18:01.168Z,95437.69
2022-12-31T16:20:31.239Z,95437.63
2022-12-31T16:23:02.346Z,95447.31
2022-12-31T16:25:32.626Z,95432.69
2022-12-31T16:28:03.485Z,95442.84
2022-12-31T16:30:32.762Z,95439.47
2022-12-31T16:33:03.725Z,95450.25
2022-12-31T16:35:33.020Z,95433.22
2022-12-31T16:38:10.967Z,95437.09
2022-12-31T16:40:38.578Z,95427.13
2022-12-31T16:43:23.497Z,95437.81
2022-12-31T16:45:51.300Z,95421.03
2022-12-31T16:48:20.706Z,95443.59
2022-12-31T16:50:51.821Z,95423.94
2022-12-31T16:53:21.771Z,95425.31
2022-12-31T16:55:55.650Z,95437.34
2022-12-31T16:58:29.136Z,95457.72
2022-12-31T17:01:01.067Z,95443.28
2022-12-31T17:03:30.065Z,95438.34
2022-12-31T17:06:02.921Z,95459.97
2022-12-31T17:08:41.247Z,95444.31
2022-12-31T17:11:23.397Z,95437.47
2022-12-31T17:13:58.630Z,95458.13
2022-12-31T17:16:26.918Z,95447.16
2022-12-31T17:18:54.585Z,95431.47
2022-12-31T17:21:26.351Z,95433.00
2022-12-31T17:23:56.785Z,95448.41
2022-12-31T17:26:27.516Z,95431.44
2022-12-31T17:28:58.581Z,95428.06
2022-12-31T17:31:34.736Z,95429.84
2022-12-31T17:34:18.351Z,95423.66
2022-12-31T17:36:57.087Z,95387.84
2022-12-31T17:39:25.505Z,95396.19
2022-12-31T17:41:56.996Z,95363.34
2022-12-31T17:44:29.101Z,95410.00
2022-12-31T17:46:56.834Z,95392.78
2022-12-31T17:49:30.480Z,95383.63
2022-12-31T17:51:58.461Z,95383.13
2022-12-31T17:54:26.033Z,95368.53
2022-12-31T17:56:53.827Z,95383.63
2022-12-31T17:59:23.694Z,95378.94
2022-12-31T18:01:52.862Z,95387.59
2022-12-31T18:04:21.423Z,95387.91
2022-12-31T18:06:49.001Z,95418.78
2022-12-31T18:09:16.822Z,95401.97
2022-12-31T18:11:45.116Z,95385.25
2022-12-31T18:14:15.058Z,95393.06
2022-12-31T18:16:42.826Z,95363.88
2022-12-31T18:19:37.807Z,95343.69
2022-12-31T18:22:02.970Z,95390.50
2022-12-31T18:24:30.444Z,95398.34
2022-12-31T18:26:58.055Z,95385.00
2022-12-31T18:29:25.568Z,95399.88
2022-12-31T18:31:53.817Z,95394.69
2022-12-31T18:34:22.734Z,95371.69
2022-12-31T18:36:50.286Z,95411.38
2022-12-31T18:39:17.835Z,95376.25
2022-12-31T18:41:49.824Z,95384.78
2022-12-31T18:44:17.989Z,95405.44
2022-12-31T18:46:45.542Z,95384.88
2022-12-31T18:49:13.100Z,95402.94
2022-12-31T18:51:42.010Z,95386.50
2022-12-31T18:54:11.922Z,95419.69
2022-12-31T18:56:49.207Z,95413.75
2022-12-31T18:59:17.772Z,95420.75
2022-12-31T19:01:45.463Z,95405.84
2022-12-31T19:04:18.702Z,95391.50
2022-12-31T19:06:50.851Z,95404.84
2022-12-31T19:09:44.261Z,95400.94
2022-12-31T19:12:13.769Z,95339.13
2022-12-31T19:14:41.408Z,95403.53
2022-12-31T19:19:35.553Z,95402.00
2022-12-31T19:22:04.511Z,95405.34
2022-12-31T19:24:32.158Z,95357.22
2022-12-31T19:27:02.318Z,95405.66
2022-12-31T19:29:30.019Z,95408.94
2022-12-31T19:31:57.897Z,95413.88
2022-12-31T19:34:25.513Z,95399.44
2022-12-31T19:36:53.060Z,95400.06
2022-12-31T19:39:22.186Z,95376.34
2022-12-31T19:41:56.591Z,95402.19
2022-12-31T19:44:26.999Z,95412.34
2022-12-31T19:46:54.660Z,95402.94
2022-12-31T19:49:22.427Z,95399.34
2022-12-31T19:51:50.062Z,95408.19
2022-12-31T19:54:17.671Z,95418.41
2022-12-31T19:56:46.622Z,95412.38
2022-12-31T19:59:14.159Z,95378.25
2022-12-31T20:01:41.794Z,95402.41
2022-12-31T20:04:12.150Z,95409.47
2022-12-31T20:06:39.871Z,95407.97
2022-12-31T20:09:08.751Z,95413.16
2022-12-31T20:11:36.404Z,95434.84
2022-12-31T20:14:05.407Z,95416.78
2022-12-31T20:16:33.988Z,95420.19
2022-12-31T20:19:01.811Z,95414.56
2022-12-31T20:21:30.503Z,95435.88
2022-12-31T20:23:58.296Z,95440.28
2022-12-31T20:26:26.906Z,95427.63
2022-12-31T20:28:54.691Z,95411.13
2022-12-31T20:31:26.845Z,95443.69
2022-12-31T20:33:56.011Z,95404.34
2022-12-31T20:36:24.495Z,95422.91
2022-12-31T20:38:52.256Z,95414.81
2022-12-31T20:41:21.605Z,95429.34
2022-12-31T20:43:49.508Z,95445.00
2022-12-31T20:46:19.305Z,95444.50
2022-12-31T20:48:50.805Z,95404.88
2022-12-31T20:51:20.243Z,95437.97
2022-12-31T20:53:49.072Z,95455.88
2022-12-31T20:56:17.195Z,95467.16
2022-12-31T20:58:45.075Z,95417.59
2022-12-31T21:01:13.341Z,95455.31
2022-12-31T21:06:33.406Z,95453.06
2022-12-31T21:09:03.102Z,95447.34
2022-12-31T21:11:48.514Z,95452.06
2022-12-31T21:14:16.084Z,95466.13
2022-12-31T21:16:43.809Z,95442.31
2022-12-31T21:19:13.589Z,95467.16
2022-12-31T21:21:42.771Z,95475.25
2022-12-31T21:24:10.740Z,95443.97
2022-12-31T21:26:38.338Z,95477.84
2022-12-31T21:29:06.021Z,95486.53
2022-12-31T21:31:33.706Z,95491.19
2022-12-31T21:34:01.415Z,95471.19
2022-12-31T21:36:31.873Z,95497.00
2022-12-31T21:39:00.853Z,95473.34
2022-12-31T21:41:45.868Z,95477.19
2022-12-31T21:44:13.445Z,95506.41
2022-12-31T21:47:00.948Z,95508.19
2022-12-31T21:49:31.389Z,95507.78
2022-12-31T21:52:16.437Z,95492.63
2022-12-31T21:55:03.140Z,95511.66
2022-12-31T21:57:41.381Z,95516.94
2022-12-31T22:00:43.995Z,95509.31
2022-12-31T22:03:27.322Z,95506.97
2022-12-31T22:05:59.069Z,95515.81
2022-12-31T22:08:29.520Z,95516.63
2022-12-31T22:10:58.826Z,95521.25
2022-12-31T22:13:26.468Z,95513.41
2022-12-31T22:16:01.745Z,95512.66
2022-12-31T22:18:34.291Z,95527.84
2022-12-31T22:21:03.247Z,95521.34
2022-12-31T22:23:32.011Z,95486.88
2022-12-31T22:26:01.868Z,95534.47
2022-12-31T22:28:39.014Z,95488.66
2022-12-31T22:31:07.751Z,95543.81
2022-12-31T22:33:35.608Z,95547.47
2022-12-31T22:36:08.482Z,95518.25
2022-12-31T22:38:36.125Z,95545.06
2022-12-31T22:41:07.962Z,95546.84
2022-12-31T22:43:38.852Z,95548.44
2022-12-31T22:46:08.546Z,95532.28
2022-12-31T22:48:36.260Z,95550.53
2022-12-31T22:51:04.072Z,95542.47
2022-12-31T22:53:31.784Z,95561.31
2022-12-31T22:55:59.696Z,95549.34
2022-12-31T22:58:29.101Z,95485.69
2022-12-31T23:00:56.805Z,95548.03
2022-12-31T23:03:24.502Z,95516.44
2022-12-31T23:05:55.485Z,95539.91
2022-12-31T23:08:24.120Z,95506.28
2022-12-31T23:10:59.832Z,95553.50
2022-12-31T23:13:50.517Z,95553.00
2022-12-31T23:16:36.710Z,95543.91
2022-12-31T23:19:21.641Z,95525.13
2022-12-31T23:22:06.839Z,95548.38
2022-12-31T23:24:34.427Z,95539.50
2022-12-31T23:27:01.855Z,95525.19
2022-12-31T23:29:30.668Z,95536.91
2022-12-31T23:31:58.179Z,95540.03
2022-12-31T23:34:25.757Z,95534.28
2022-12-31T23:36:53.238Z,95543.97
2022-12-31T23:39:20.763Z,95541.63
2022-12-31T23:41:48.317Z,95508.78
2022-12-31T23:44:15.818Z,95550.25
2022-12-31T23:46:45.449Z,95556.78
2022-12-31T23:49:13.170Z,95565.13
2022-12-31T23:51:40.645Z,95560.47
2022-12-31T23:54:08.554Z,95561.75
2022-12-31T23:56:36.064Z,95553.13
2022-12-31T23:59:03.831Z,95552.88
